createdAt,value
2023-04-04T00:00:46.223Z,22.78
2023-04-04T00:01:46.267Z,22.78
2023-04-04T00:02:46.460Z,22.80
2023-04-04T00:03:46.433Z,22.79
2023-04-04T00:04:46.548Z,22.79
2023-04-04T00:05:46.548Z,22.79
2023-04-04T00:06:46.557Z,22.76
2023-04-04T00:07:46.610Z,22.76
2023-04-04T00:08:46.665Z,22.79
2023-04-04T00:09:45.783Z,22.78
2023-04-04T00:10:46.793Z,22.76
2023-04-04T00:11:45.852Z,22.76
2023-04-04T00:12:46.920Z,22.76
2023-04-04T00:13:46.969Z,22.76
2023-04-04T00:14:47.029Z,22.78
2023-04-04T00:15:47.176Z,22.78
2023-04-04T00:16:47.144Z,22.78
2023-04-04T00:17:47.238Z,22.76
2023-04-04T00:18:47.268Z,22.76
2023-04-04T00:19:47.342Z,22.76
2023-04-04T00:20:47.396Z,22.76
2023-04-04T00:21:47.478Z,22.78
2023-04-04T00:22:47.516Z,22.78
2023-04-04T00:23:47.604Z,22.78
2023-04-04T00:24:46.694Z,22.76
2023-04-04T00:25:47.706Z,22.78
2023-04-04T00:26:47.772Z,22.76
2023-04-04T00:27:47.847Z,22.76
2023-04-04T00:28:47.899Z,22.76
2023-04-04T00:29:47.955Z,22.78
2023-04-04T00:30:48.019Z,22.76
2023-04-04T00:31:48.135Z,22.75
2023-04-04T00:32:47.183Z,22.78
2023-04-04T00:33:47.196Z,22.76
2023-04-04T00:34:47.210Z,22.76
2023-04-04T00:35:47.284Z,22.78
2023-04-04T00:36:48.324Z,22.75
2023-04-04T00:37:47.361Z,22.76
2023-04-04T00:38:48.445Z,22.75
2023-04-04T00:39:48.464Z,22.76
2023-04-04T00:40:47.521Z,22.75
2023-04-04T00:41:48.576Z,22.76
2023-04-04T00:42:48.657Z,22.76
2023-04-04T00:43:48.752Z,22.76
2023-04-04T00:44:48.778Z,22.74
2023-04-04T00:45:48.875Z,22.74
2023-04-04T00:46:47.877Z,22.75
2023-04-04T00:47:48.981Z,22.75
2023-04-04T00:48:47.995Z,22.74
2023-04-04T00:49:49.053Z,22.75
2023-04-04T00:50:49.108Z,22.74
2023-04-04T00:51:48.145Z,22.74
2023-04-04T00:52:48.317Z,22.74
2023-04-04T00:53:48.288Z,22.74
2023-04-04T00:54:48.337Z,22.72
2023-04-04T00:55:49.450Z,22.74
2023-04-04T00:56:49.496Z,22.74
2023-04-04T00:57:49.543Z,22.74
2023-04-04T00:58:49.637Z,22.74
2023-04-04T00:59:48.654Z,22.74
2023-04-04T01:00:48.726Z,22.71
2023-04-04T01:01:49.792Z,22.71
2023-04-04T01:02:48.839Z,22.72
2023-04-04T01:03:49.860Z,22.75
2023-04-04T01:04:49.890Z,22.72
2023-04-04T01:05:48.992Z,22.72
2023-04-04T01:06:48.960Z,22.72
2023-04-04T01:07:50.007Z,22.71
2023-04-04T01:08:50.048Z,22.69
2023-04-04T01:09:50.095Z,22.74
2023-04-04T01:10:50.169Z,22.72
2023-04-04T01:11:50.194Z,22.74
2023-04-04T01:12:50.275Z,22.69
2023-04-04T01:13:50.324Z,22.75
2023-04-04T01:14:50.364Z,22.71
2023-04-04T01:15:50.434Z,22.71
2023-04-04T01:16:49.433Z,22.72
2023-04-04T01:17:50.492Z,22.72
2023-04-04T01:18:50.511Z,22.72
2023-04-04T01:19:50.520Z,22.74
2023-04-04T01:20:50.577Z,22.71
2023-04-04T01:21:50.579Z,22.69
2023-04-04T01:22:50.592Z,22.71
2023-04-04T01:23:50.617Z,22.71
2023-04-04T01:24:50.632Z,22.74
2023-04-04T01:25:49.736Z,22.71
2023-04-04T01:26:50.750Z,22.71
2023-04-04T01:27:50.784Z,22.68
2023-04-04T01:28:50.814Z,22.71
2023-04-04T01:29:50.881Z,22.71
2023-04-04T01:30:50.912Z,22.71
2023-04-04T01:31:50.952Z,22.69
2023-04-04T01:32:51.109Z,22.69
2023-04-04T01:33:50.058Z,22.69
2023-04-04T01:34:51.098Z,22.71
2023-04-04T01:35:51.172Z,22.68
2023-04-04T01:36:51.185Z,22.69
2023-04-04T01:37:51.158Z,22.71
2023-04-04T01:38:50.212Z,22.68
2023-04-04T01:39:50.218Z,22.71
2023-04-04T01:40:51.252Z,22.66
2023-04-04T01:41:51.298Z,22.68
2023-04-04T01:42:51.306Z,22.69
2023-04-04T01:43:51.352Z,22.69
2023-04-04T01:44:51.357Z,22.68
2023-04-04T01:45:51.414Z,22.68
2023-04-04T01:46:51.424Z,22.68
2023-04-04T01:47:51.521Z,22.68
2023-04-04T01:48:51.477Z,22.66
2023-04-04T01:49:51.516Z,22.69
2023-04-04T01:50:51.560Z,22.66
2023-04-04T01:51:51.614Z,22.68
2023-04-04T01:52:50.685Z,22.65
2023-04-04T01:53:50.667Z,22.66
2023-04-04T01:54:50.700Z,22.68
2023-04-04T01:55:51.702Z,22.68
2023-04-04T01:56:51.748Z,22.64
2023-04-04T01:57:51.744Z,22.68
2023-04-04T01:58:50.827Z,22.65
2023-04-04T01:59:50.795Z,22.68
2023-04-04T02:00:51.812Z,22.65
2023-04-04T02:01:51.894Z,22.66
2023-04-04T02:02:51.919Z,22.64
2023-04-04T02:03:51.906Z,22.68
2023-04-04T02:04:51.919Z,22.68
2023-04-04T02:05:51.923Z,22.65
2023-04-04T02:06:52.589Z,22.65
2023-04-04T02:07:50.963Z,22.65
2023-04-04T02:08:51.999Z,22.66
2023-04-04T02:09:52.009Z,22.65
2023-04-04T02:10:52.025Z,22.66
2023-04-04T02:11:52.131Z,22.66
2023-04-04T02:12:51.138Z,22.66
2023-04-04T02:13:52.159Z,22.65
2023-04-04T02:14:52.190Z,22.66
2023-04-04T02:15:52.262Z,22.65
2023-04-04T02:16:51.264Z,22.66
2023-04-04T02:17:52.328Z,22.64
2023-04-04T02:18:51.342Z,22.66
2023-04-04T02:19:52.439Z,22.65
2023-04-04T02:20:52.477Z,22.66
2023-04-04T02:21:52.502Z,22.64
2023-04-04T02:22:52.523Z,22.65
2023-04-04T02:23:51.550Z,22.64
2023-04-04T02:24:52.582Z,22.65
2023-04-04T02:25:52.601Z,22.66
2023-04-04T02:26:52.615Z,22.64
2023-04-04T02:27:51.651Z,22.64
2023-04-04T02:28:51.713Z,22.64
2023-04-04T02:29:52.708Z,22.64
2023-04-04T02:30:52.718Z,22.65
2023-04-04T02:31:52.747Z,22.65
2023-04-04T02:32:52.786Z,22.64
2023-04-04T02:33:51.749Z,22.64
2023-04-04T02:34:51.824Z,22.64
2023-04-04T02:35:52.839Z,22.64
2023-04-04T02:36:52.846Z,22.65
2023-04-04T02:37:52.853Z,22.62
2023-04-04T02:38:52.859Z,22.65
2023-04-04T02:39:52.872Z,22.64
2023-04-04T02:40:52.928Z,22.64
2023-04-04T02:41:52.976Z,22.62
2023-04-04T02:42:52.951Z,22.65
2023-04-04T02:43:52.953Z,22.62
2023-04-04T02:44:52.983Z,22.64
2023-04-04T02:45:52.033Z,22.62
2023-04-04T02:46:53.063Z,22.62
2023-04-04T02:47:53.144Z,22.64
2023-04-04T02:48:52.173Z,22.62
2023-04-04T02:49:53.108Z,22.65
2023-04-04T02:50:52.160Z,22.64
2023-04-04T02:51:53.156Z,22.61
2023-04-04T02:52:52.162Z,22.62
2023-04-04T02:53:53.232Z,22.64
2023-04-04T02:54:53.198Z,22.62
2023-04-04T02:55:53.229Z,22.64
2023-04-04T02:56:52.276Z,22.62
2023-04-04T02:57:52.288Z,22.61
2023-04-04T02:58:53.384Z,22.62
2023-04-04T02:59:53.334Z,22.61
2023-04-04T03:00:53.397Z,22.62
2023-04-04T03:01:53.360Z,22.64
2023-04-04T03:02:53.480Z,22.64
2023-04-04T03:03:53.478Z,22.64
2023-04-04T03:04:53.403Z,22.62
2023-04-04T03:05:53.448Z,22.62
2023-04-04T03:06:53.459Z,22.61
2023-04-04T03:07:52.506Z,22.62
2023-04-04T03:08:53.500Z,22.61
2023-04-04T03:09:53.519Z,22.62
2023-04-04T03:10:53.571Z,22.61
2023-04-04T03:11:53.626Z,22.64
2023-04-04T03:12:53.686Z,22.61
2023-04-04T03:13:53.667Z,22.62
2023-04-04T03:14:53.724Z,22.61
2023-04-04T03:15:53.729Z,22.61
2023-04-04T03:16:53.887Z,22.64
2023-04-04T03:17:52.817Z,22.64
2023-04-04T03:18:53.788Z,22.62
2023-04-04T03:19:53.844Z,22.62
2023-04-04T03:20:53.860Z,22.64
2023-04-04T03:21:53.862Z,22.61
2023-04-04T03:22:53.913Z,22.59
2023-04-04T03:23:52.913Z,22.62
2023-04-04T03:24:53.931Z,22.62
2023-04-04T03:25:53.969Z,22.61
2023-04-04T03:26:54.023Z,22.61
2023-04-04T03:27:54.005Z,22.61
2023-04-04T03:28:53.101Z,22.61
2023-04-04T03:29:53.039Z,22.61
2023-04-04T03:30:54.068Z,22.61
2023-04-04T03:31:54.105Z,22.59
2023-04-04T03:32:53.523Z,22.62
2023-04-04T03:33:54.196Z,22.61
2023-04-04T03:34:54.211Z,22.61
2023-04-04T03:35:54.264Z,22.59
2023-04-04T03:36:54.266Z,22.58
2023-04-04T03:37:53.292Z,22.59
2023-04-04T03:38:54.336Z,22.59
2023-04-04T03:39:54.350Z,22.61
2023-04-04T03:40:54.363Z,22.59
2023-04-04T03:41:54.394Z,22.59
2023-04-04T03:42:54.382Z,22.59
2023-04-04T03:43:54.420Z,22.58
2023-04-04T03:44:54.440Z,22.61
2023-04-04T03:45:53.431Z,22.61
2023-04-04T03:46:54.454Z,22.56
2023-04-04T03:47:54.530Z,22.59
2023-04-04T03:48:54.527Z,22.59
2023-04-04T03:49:53.539Z,22.59
2023-04-04T03:50:54.597Z,22.59
2023-04-04T03:51:54.577Z,22.61
2023-04-04T03:52:53.608Z,22.61
2023-04-04T03:53:53.641Z,22.61
2023-04-04T03:54:53.658Z,22.61
2023-04-04T03:55:55.015Z,22.59
2023-04-04T03:56:53.743Z,22.59
2023-04-04T03:57:54.707Z,22.58
2023-04-04T03:58:53.761Z,22.61
2023-04-04T03:59:54.774Z,22.59
2023-04-04T04:00:53.781Z,22.61
2023-04-04T04:01:54.801Z,22.59
2023-04-04T04:02:54.919Z,22.61
2023-04-04T04:03:54.996Z,22.58
2023-04-04T04:04:54.868Z,22.61
2023-04-04T04:05:54.897Z,22.58
2023-04-04T04:06:54.911Z,22.59
2023-04-04T04:07:53.926Z,22.59
2023-04-04T04:08:53.929Z,22.55
2023-04-04T04:09:54.947Z,22.58
2023-04-04T04:10:55.025Z,22.58
2023-04-04T04:11:55.039Z,22.59
2023-04-04T04:12:55.088Z,22.59
2023-04-04T04:13:54.082Z,22.58
2023-04-04T04:14:54.103Z,22.54
2023-04-04T04:15:54.207Z,22.58
2023-04-04T04:16:54.153Z,22.58
2023-04-04T04:17:55.277Z,22.58
2023-04-04T04:18:55.199Z,22.56
2023-04-04T04:19:55.242Z,22.58
2023-04-04T04:20:55.222Z,22.55
2023-04-04T04:21:54.265Z,22.55
2023-04-04T04:22:55.322Z,22.59
2023-04-04T04:23:55.325Z,22.59
2023-04-04T04:24:55.837Z,22.58
2023-04-04T04:25:55.358Z,22.58
2023-04-04T04:26:55.388Z,22.58
2023-04-04T04:27:55.429Z,22.59
2023-04-04T04:28:55.432Z,22.58
2023-04-04T04:29:55.469Z,22.58
2023-04-04T04:30:55.523Z,22.58
2023-04-04T04:31:55.589Z,22.55
2023-04-04T04:32:55.653Z,22.56
2023-04-04T04:33:55.589Z,22.56
2023-04-04T04:34:55.613Z,22.56
2023-04-04T04:35:54.620Z,22.58
2023-04-04T04:36:54.662Z,22.58
2023-04-04T04:37:54.750Z,22.56
2023-04-04T04:38:55.678Z,22.58
2023-04-04T04:39:54.717Z,22.55
2023-04-04T04:40:55.750Z,22.55
2023-04-04T04:41:54.823Z,22.54
2023-04-04T04:42:54.803Z,22.55
2023-04-04T04:43:55.816Z,22.56
2023-04-04T04:44:55.851Z,22.56
2023-04-04T04:45:54.876Z,22.54
2023-04-04T04:46:55.951Z,22.56
2023-04-04T04:47:55.012Z,22.55
2023-04-04T04:48:56.002Z,22.55
2023-04-04T04:49:56.019Z,22.58
2023-04-04T04:50:56.031Z,22.56
2023-04-04T04:51:56.083Z,22.52
2023-04-04T04:52:56.119Z,22.56
2023-04-04T04:53:55.156Z,22.56
2023-04-04T04:54:56.232Z,22.55
2023-04-04T04:55:56.209Z,22.54
2023-04-04T04:56:56.294Z,22.55
2023-04-04T04:57:55.272Z,22.54
2023-04-04T04:58:56.311Z,22.55
2023-04-04T04:59:56.292Z,22.55
2023-04-04T05:00:55.407Z,22.55
2023-04-04T05:01:56.409Z,22.52
2023-04-04T05:02:56.516Z,22.54
2023-04-04T05:03:56.433Z,22.54
2023-04-04T05:04:56.436Z,22.54
2023-04-04T05:05:56.447Z,22.54
2023-04-04T05:06:56.513Z,22.54
2023-04-04T05:07:56.513Z,22.55
2023-04-04T05:08:55.570Z,22.54
2023-04-04T05:09:56.611Z,22.54
2023-04-04T05:10:56.655Z,22.55
2023-04-04T05:11:56.704Z,22.55
2023-04-04T05:12:56.756Z,22.52
2023-04-04T05:13:56.790Z,22.55
2023-04-04T05:14:56.839Z,22.51
2023-04-04T05:15:55.877Z,22.55
2023-04-04T05:16:56.953Z,22.54
2023-04-04T05:17:56.031Z,22.54
2023-04-04T05:18:56.013Z,22.55
2023-04-04T05:19:57.080Z,22.54
2023-04-04T05:20:57.064Z,22.54
2023-04-04T05:21:57.117Z,22.52
2023-04-04T05:22:57.157Z,22.51
2023-04-04T05:23:56.223Z,22.54
2023-04-04T05:24:57.236Z,22.52
2023-04-04T05:25:57.264Z,22.54
2023-04-04T05:26:57.309Z,22.52
2023-04-04T05:27:56.361Z,22.55
2023-04-04T05:28:57.405Z,22.52
2023-04-04T05:29:56.430Z,22.52
2023-04-04T05:30:57.444Z,22.54
2023-04-04T05:31:56.601Z,22.52
2023-04-04T05:32:56.593Z,22.51
2023-04-04T05:33:56.556Z,22.51
2023-04-04T05:34:56.585Z,22.51
2023-04-04T05:35:57.710Z,22.52
2023-04-04T05:36:56.707Z,22.52
2023-04-04T05:37:57.672Z,22.50
2023-04-04T05:38:57.711Z,22.52
2023-04-04T05:39:57.747Z,22.51
2023-04-04T05:40:57.775Z,22.52
2023-04-04T05:41:57.815Z,22.54
2023-04-04T05:42:57.911Z,22.48
2023-04-04T05:43:57.879Z,22.48
2023-04-04T05:44:57.921Z,22.52
2023-04-04T05:45:57.968Z,22.52
2023-04-04T05:46:57.989Z,22.52
2023-04-04T05:47:58.053Z,22.50
2023-04-04T05:48:58.046Z,22.51
2023-04-04T05:49:58.090Z,22.50
2023-04-04T05:50:57.107Z,22.50
2023-04-04T05:51:57.141Z,22.51
2023-04-04T05:52:57.172Z,22.50
2023-04-04T05:53:58.172Z,22.50
2023-04-04T05:54:58.234Z,22.48
2023-04-04T05:55:58.259Z,22.51
2023-04-04T05:56:58.288Z,22.51
2023-04-04T05:57:58.328Z,22.50
2023-04-04T05:58:58.444Z,22.47
2023-04-04T05:59:58.425Z,22.50
2023-04-04T06:00:58.472Z,22.50
2023-04-04T06:01:58.470Z,22.51
2023-04-04T06:02:58.753Z,22.50
2023-04-04T06:03:57.545Z,22.50
2023-04-04T06:04:58.568Z,22.50
2023-04-04T06:05:57.614Z,22.51
2023-04-04T06:06:57.618Z,22.48
2023-04-04T06:07:58.688Z,22.50
2023-04-04T06:08:58.693Z,22.48
2023-04-04T06:09:58.731Z,22.51
2023-04-04T06:10:58.781Z,22.48
2023-04-04T06:11:58.805Z,22.48
2023-04-04T06:12:58.845Z,22.52
2023-04-04T06:13:58.917Z,22.48
2023-04-04T06:14:58.931Z,22.50
2023-04-04T06:15:58.987Z,22.51
2023-04-04T06:16:58.989Z,22.47
2023-04-04T06:17:59.082Z,22.51
2023-04-04T06:18:58.089Z,22.48
2023-04-04T06:19:59.164Z,22.51
2023-04-04T06:20:59.151Z,22.50
2023-04-04T06:21:59.183Z,22.50
2023-04-04T06:22:59.191Z,22.50
2023-04-04T06:23:59.246Z,22.48
2023-04-04T06:24:59.313Z,22.48
2023-04-04T06:25:59.290Z,22.50
2023-04-04T06:26:58.327Z,22.51
2023-04-04T06:27:59.406Z,22.48
2023-04-04T06:28:59.400Z,22.48
2023-04-04T06:29:59.434Z,22.50
2023-04-04T06:30:59.451Z,22.48
2023-04-04T06:31:59.489Z,22.50
2023-04-04T06:32:59.573Z,22.48
2023-04-04T06:33:59.577Z,22.51
2023-04-04T06:34:59.591Z,22.48
2023-04-04T06:35:59.628Z,22.47
2023-04-04T06:36:58.635Z,22.50
2023-04-04T06:37:59.695Z,22.50
2023-04-04T06:38:59.718Z,22.51
2023-04-04T06:39:59.773Z,22.50
2023-04-04T06:41:02.801Z,22.48
2023-04-04T06:41:58.748Z,22.48
2023-04-04T06:42:59.764Z,22.50
2023-04-04T06:43:58.738Z,22.45
2023-04-04T06:44:59.761Z,22.51
2023-04-04T06:45:58.755Z,22.47
2023-04-04T06:46:59.906Z,22.50
2023-04-04T06:47:58.820Z,22.51
2023-04-04T06:48:58.729Z,22.52
2023-04-04T06:49:59.726Z,22.50
2023-04-04T06:50:59.707Z,22.51
2023-04-04T06:51:59.686Z,22.48
2023-04-04T06:52:59.704Z,22.51
2023-04-04T06:53:59.759Z,22.52
2023-04-04T06:54:59.688Z,22.51
2023-04-04T06:55:58.695Z,22.50
2023-04-04T06:56:59.656Z,22.52
2023-04-04T06:57:59.645Z,22.52
2023-04-04T06:58:58.666Z,22.50
2023-04-04T06:59:59.630Z,22.52
2023-04-04T07:00:58.683Z,22.51
2023-04-04T07:01:59.721Z,22.54
2023-04-04T07:02:59.638Z,22.52
2023-04-04T07:03:58.609Z,22.52
2023-04-04T07:04:58.619Z,22.51
2023-04-04T07:05:59.647Z,22.54
2023-04-04T07:06:59.588Z,22.51
2023-04-04T07:07:59.587Z,22.52
2023-04-04T07:08:59.644Z,22.52
2023-04-04T07:09:59.588Z,22.52
2023-04-04T07:10:59.596Z,22.52
2023-04-04T07:11:59.589Z,22.51
2023-04-04T07:12:59.530Z,22.52
2023-04-04T07:13:58.533Z,22.52
2023-04-04T07:14:58.511Z,22.51
2023-04-04T07:15:59.583Z,22.54
2023-04-04T07:16:59.906Z,22.55
2023-04-04T07:17:59.659Z,22.52
2023-04-04T07:18:59.641Z,22.54
2023-04-04T07:19:59.600Z,22.51
2023-04-04T07:20:58.649Z,22.54
2023-04-04T07:21:58.687Z,22.54
2023-04-04T07:22:58.768Z,22.55
2023-04-04T07:23:58.744Z,22.54
2023-04-04T07:24:59.887Z,22.52
2023-04-04T07:25:59.822Z,22.54
2023-04-04T07:26:59.899Z,22.52
2023-04-04T07:28:11.848Z,22.54
2023-04-04T07:28:59.899Z,22.54
2023-04-04T07:29:59.882Z,22.55
2023-04-04T07:30:58.881Z,22.52
2023-04-04T07:31:59.933Z,22.54
2023-04-04T07:32:59.902Z,22.55
2023-04-04T07:33:59.901Z,22.54
2023-04-04T07:34:58.844Z,22.55
2023-04-04T07:35:59.869Z,22.55
2023-04-04T07:36:59.826Z,22.55
2023-04-04T07:37:59.817Z,22.55
2023-04-04T07:38:59.828Z,22.58
2023-04-04T07:39:59.842Z,22.58
2023-04-04T07:41:00.003Z,22.56
2023-04-04T07:41:58.791Z,22.56
2023-04-04T07:42:58.810Z,22.58
2023-04-04T07:43:59.807Z,22.58
2023-04-04T07:44:59.765Z,22.59
2023-04-04T07:45:59.796Z,22.59
2023-04-04T07:47:09.151Z,22.58
2023-04-04T07:47:59.804Z,22.61
2023-04-04T07:48:58.731Z,22.59
2023-04-04T07:49:59.724Z,22.58
2023-04-04T07:50:58.721Z,22.62
2023-04-04T07:51:59.708Z,22.61
2023-04-04T07:52:59.688Z,22.59
2023-04-04T07:53:59.691Z,22.59
2023-04-04T07:54:59.687Z,22.62
2023-04-04T07:55:59.696Z,22.64
2023-04-04T07:56:59.673Z,22.62
2023-04-04T07:57:59.714Z,22.62
2023-04-04T07:58:59.734Z,22.62
2023-04-04T07:59:59.667Z,22.64
2023-04-04T08:00:59.679Z,22.62
2023-04-04T08:01:59.625Z,22.62
2023-04-04T08:02:59.691Z,22.62
2023-04-04T08:03:59.816Z,22.65
2023-04-04T08:04:59.622Z,22.62
2023-04-04T08:05:59.595Z,22.64
2023-04-04T08:06:59.591Z,22.62
2023-04-04T08:07:58.573Z,22.64
2023-04-04T08:08:59.582Z,22.64
2023-04-04T08:09:59.603Z,22.65
2023-04-04T08:10:58.566Z,22.64
2023-04-04T08:11:59.544Z,22.64
2023-04-04T08:12:59.567Z,22.65
2023-04-04T08:13:59.543Z,22.64
2023-04-04T08:14:58.525Z,22.64
2023-04-04T08:15:59.556Z,22.65
2023-04-04T08:16:59.536Z,22.64
2023-04-04T08:17:58.541Z,22.65
2023-04-04T08:19:00.082Z,22.64
2023-04-04T08:19:59.499Z,22.66
2023-04-04T08:20:59.488Z,22.66
2023-04-04T08:21:59.466Z,22.62
2023-04-04T08:22:59.488Z,22.66
2023-04-04T08:23:59.465Z,22.66
2023-04-04T08:24:59.486Z,22.64
2023-04-04T08:25:59.520Z,22.65
2023-04-04T08:27:05.260Z,22.65
2023-04-04T08:27:59.576Z,22.64
2023-04-04T08:28:59.592Z,22.65
2023-04-04T08:30:00.418Z,22.65
2023-04-04T08:31:00.349Z,22.68
2023-04-04T08:31:59.544Z,22.65
2023-04-04T08:32:59.596Z,22.65
2023-04-04T08:33:59.495Z,22.66
2023-04-04T08:34:58.494Z,22.66
2023-04-04T08:35:59.573Z,22.68
2023-04-04T08:36:58.481Z,22.66
2023-04-04T08:37:59.460Z,22.66
2023-04-04T08:38:58.471Z,22.66
2023-04-04T08:39:59.473Z,22.65
2023-04-04T08:40:59.482Z,22.66
2023-04-04T08:41:59.459Z,22.68
2023-04-04T08:42:59.559Z,22.66
2023-04-04T08:43:59.599Z,22.68
2023-04-04T08:44:59.640Z,22.68
2023-04-04T08:45:59.716Z,22.68
2023-04-04T08:46:59.851Z,22.66
2023-04-04T08:47:59.965Z,22.68
2023-04-04T08:48:59.893Z,22.66
2023-04-04T08:50:00.004Z,22.68
2023-04-04T08:50:59.123Z,22.68
2023-04-04T08:52:00.150Z,22.68
2023-04-04T08:53:00.131Z,22.68
2023-04-04T08:53:59.160Z,22.66
2023-04-04T08:54:59.193Z,22.66
2023-04-04T08:56:00.260Z,22.68
2023-04-04T08:57:00.349Z,22.68
2023-04-04T08:58:00.359Z,22.66
2023-04-04T08:59:00.476Z,22.71
2023-04-04T09:00:00.628Z,22.69
2023-04-04T09:00:59.534Z,22.69
2023-04-04T09:02:01.378Z,22.69
2023-04-04T09:03:00.629Z,22.71
2023-04-04T09:03:59.664Z,22.69
2023-04-04T09:05:06.236Z,22.69
2023-04-04T09:06:00.705Z,22.69
2023-04-04T09:07:00.702Z,22.71
2023-04-04T09:07:59.679Z,22.69
2023-04-04T09:08:59.899Z,22.69
2023-04-04T09:10:00.672Z,22.69
2023-04-04T09:11:00.668Z,22.69
2023-04-04T09:12:00.652Z,22.71
2023-04-04T09:13:12.423Z,22.71
2023-04-04T09:14:00.638Z,22.69
2023-04-04T09:15:00.660Z,22.69
2023-04-04T09:16:00.655Z,22.69
2023-04-04T09:17:00.789Z,22.71
2023-04-04T09:18:00.637Z,22.71
2023-04-04T09:19:00.624Z,22.71
2023-04-04T09:19:59.638Z,22.72
2023-04-04T09:21:00.590Z,22.72
2023-04-04T09:22:00.600Z,22.69
2023-04-04T09:23:00.588Z,22.69
2023-04-04T09:23:59.569Z,22.69
2023-04-04T09:25:00.690Z,22.71
2023-04-04T09:26:04.286Z,22.74
2023-04-04T09:27:00.557Z,22.72
2023-04-04T09:28:00.545Z,22.71
2023-04-04T09:28:59.551Z,22.71
2023-04-04T09:30:00.620Z,22.74
2023-04-04T09:31:00.590Z,22.72
2023-04-04T09:32:00.552Z,22.72
2023-04-04T09:33:00.554Z,22.72
2023-04-04T09:34:00.681Z,22.72
2023-04-04T09:34:59.494Z,22.75
2023-04-04T09:36:00.557Z,22.72
2023-04-04T09:36:59.569Z,22.74
2023-04-04T09:38:00.629Z,22.71
2023-04-04T09:39:00.736Z,22.72
2023-04-04T09:40:00.803Z,22.72
2023-04-04T09:40:59.871Z,22.71
2023-04-04T09:42:00.894Z,22.71
2023-04-04T09:43:00.968Z,22.72
2023-04-04T09:44:00.993Z,22.74
2023-04-04T09:45:01.106Z,22.72
2023-04-04T09:46:01.142Z,22.72
2023-04-04T09:47:01.190Z,22.71
2023-04-04T09:48:01.316Z,22.74
2023-04-04T09:49:01.295Z,22.71
2023-04-04T09:50:00.353Z,22.72
2023-04-04T09:51:01.445Z,22.74
2023-04-04T09:52:01.512Z,22.72
2023-04-04T09:53:01.533Z,22.72
2023-04-04T09:54:01.593Z,22.71
2023-04-04T09:55:01.776Z,22.71
2023-04-04T09:56:01.717Z,22.74
2023-04-04T09:57:00.839Z,22.72
2023-04-04T09:58:01.837Z,22.72
2023-04-04T09:59:04.272Z,22.71
2023-04-04T10:00:00.982Z,22.72
2023-04-04T10:01:02.020Z,22.72
2023-04-04T10:02:01.886Z,22.72
2023-04-04T10:03:04.923Z,22.72
2023-04-04T10:04:01.893Z,22.71
2023-04-04T10:05:05.902Z,22.69
2023-04-04T10:06:01.989Z,22.72
2023-04-04T10:07:02.037Z,22.69
2023-04-04T10:08:02.137Z,22.71
2023-04-04T10:09:01.231Z,22.72
2023-04-04T10:10:02.164Z,22.72
2023-04-04T10:12:01.212Z,22.75
2023-04-04T10:13:02.532Z,22.69
2023-04-04T10:14:02.215Z,22.72
2023-04-04T10:15:01.316Z,22.72
2023-04-04T10:16:02.301Z,22.71
2023-04-04T10:17:01.192Z,22.72
2023-04-04T10:18:02.289Z,22.72
2023-04-04T10:19:01.248Z,22.71
2023-04-04T10:20:02.253Z,22.71
2023-04-04T10:21:14.075Z,22.72
2023-04-04T10:22:02.161Z,22.72
2023-04-04T10:23:02.203Z,22.72
2023-04-04T10:24:01.153Z,22.72
2023-04-04T10:25:02.152Z,22.72
2023-04-04T10:26:02.141Z,22.71
2023-04-04T10:27:02.121Z,22.69
2023-04-04T10:28:01.103Z,22.74
2023-04-04T10:29:02.115Z,22.74
2023-04-04T10:30:01.111Z,22.74
2023-04-04T10:31:06.830Z,22.72
2023-04-04T10:32:02.155Z,22.75
2023-04-04T10:33:02.082Z,22.74
2023-04-04T10:34:02.068Z,22.72
2023-04-04T10:35:01.058Z,22.74
2023-04-04T10:36:02.082Z,22.74
2023-04-04T10:37:02.066Z,22.74
2023-04-04T10:38:01.043Z,22.74
2023-04-04T10:39:02.034Z,22.74
2023-04-04T10:40:02.044Z,22.74
2023-04-04T10:41:02.011Z,22.74
2023-04-04T10:42:02.058Z,22.71
2023-04-04T10:43:02.205Z,22.71
2023-04-04T10:44:02.207Z,22.71
2023-04-04T10:45:16.895Z,22.72
2023-04-04T10:46:02.311Z,22.71
2023-04-04T10:47:02.268Z,22.72
2023-04-04T10:48:02.323Z,22.71
2023-04-04T10:49:01.226Z,22.69
2023-04-04T10:50:02.214Z,22.71
2023-04-04T10:51:02.198Z,22.72
2023-04-04T10:52:02.230Z,22.72
2023-04-04T10:53:01.218Z,22.72
2023-04-04T10:54:01.190Z,22.71
2023-04-04T10:55:02.165Z,22.71
2023-04-04T10:56:02.445Z,22.74
2023-04-04T10:57:01.157Z,22.71
2023-04-04T10:58:02.178Z,22.72
2023-04-04T10:59:02.168Z,22.72
2023-04-04T11:00:02.520Z,22.75
2023-04-04T11:01:02.216Z,22.74
2023-04-04T11:02:02.140Z,22.78
2023-04-04T11:03:02.514Z,22.72
2023-04-04T11:04:02.175Z,22.72
2023-04-04T11:05:02.115Z,22.74
2023-04-04T11:06:02.189Z,22.72
2023-04-04T11:07:02.141Z,22.75
2023-04-04T11:09:01.221Z,22.72
2023-04-04T11:10:02.206Z,22.74
2023-04-04T11:12:01.359Z,22.74
2023-04-04T11:13:11.764Z,22.75
2023-04-04T11:14:02.198Z,22.74
2023-04-04T11:15:01.170Z,22.76
2023-04-04T11:16:01.162Z,22.75
2023-04-04T11:17:02.174Z,22.75
2023-04-04T11:18:05.985Z,22.75
2023-04-04T11:19:02.170Z,22.74
2023-04-04T11:20:01.159Z,22.75
2023-04-04T11:21:01.116Z,22.75
2023-04-04T11:22:02.117Z,22.75
2023-04-04T11:23:01.098Z,22.76
2023-04-04T11:24:02.139Z,22.76
2023-04-04T11:25:01.110Z,22.74
2023-04-04T11:26:02.080Z,22.74
2023-04-04T11:27:02.071Z,22.76
2023-04-04T11:28:02.232Z,22.75
2023-04-04T11:29:02.173Z,22.76
2023-04-04T11:30:01.069Z,22.75
2023-04-04T11:31:02.057Z,22.75
2023-04-04T11:32:02.069Z,22.76
2023-04-04T11:33:07.227Z,22.74
2023-04-04T11:34:02.038Z,22.74
2023-04-04T11:35:01.028Z,22.75
2023-04-04T11:36:02.052Z,22.76
2023-04-04T11:37:02.020Z,22.76
2023-04-04T11:38:01.056Z,22.76
2023-04-04T11:39:00.988Z,22.74
2023-04-04T11:40:01.995Z,22.75
2023-04-04T11:41:01.972Z,22.75
2023-04-04T11:42:01.985Z,22.75
2023-04-04T11:43:01.995Z,22.76
2023-04-04T11:44:02.075Z,22.75
2023-04-04T11:45:01.109Z,22.72
2023-04-04T11:46:01.195Z,22.75
2023-04-04T11:47:02.258Z,22.74
2023-04-04T11:48:02.391Z,22.75
2023-04-04T11:49:02.542Z,22.75
2023-04-04T11:50:02.430Z,22.74
2023-04-04T11:51:02.468Z,22.75
2023-04-04T11:52:02.535Z,22.74
2023-04-04T11:53:02.597Z,22.75
2023-04-04T11:54:02.719Z,22.75
2023-04-04T11:55:02.705Z,22.76
2023-04-04T11:56:01.780Z,22.74
2023-04-04T11:57:02.828Z,22.75
2023-04-04T11:58:02.875Z,22.74
2023-04-04T11:59:11.106Z,22.74
2023-04-04T12:00:02.937Z,22.76
2023-04-04T12:01:02.921Z,22.75
2023-04-04T12:02:03.144Z,22.75
2023-04-04T12:03:01.980Z,22.74
2023-04-04T12:04:02.931Z,22.74
2023-04-04T12:05:02.996Z,22.75
2023-04-04T12:06:03.007Z,22.74
2023-04-04T12:07:03.028Z,22.75
2023-04-04T12:08:01.882Z,22.76
2023-04-04T12:09:02.927Z,22.76
2023-04-04T12:10:02.934Z,22.74
2023-04-04T12:11:02.992Z,22.76
2023-04-04T12:12:03.054Z,22.75
2023-04-04T12:13:02.116Z,22.76
2023-04-04T12:14:02.179Z,22.72
2023-04-04T12:15:16.511Z,22.75
2023-04-04T12:16:03.305Z,22.74
2023-04-04T12:17:03.221Z,22.74
2023-04-04T12:18:02.276Z,22.74
2023-04-04T12:19:03.247Z,22.74
2023-04-04T12:20:03.194Z,22.74
2023-04-04T12:21:03.200Z,22.72
2023-04-04T12:22:05.222Z,22.75
2023-04-04T12:23:03.374Z,22.72
2023-04-04T12:24:03.161Z,22.75
2023-04-04T12:25:03.223Z,22.74
2023-04-04T12:26:03.158Z,22.72
2023-04-04T12:27:04.041Z,22.74
2023-04-04T12:28:03.146Z,22.74
2023-04-04T12:29:02.152Z,22.75
2023-04-04T12:30:03.128Z,22.72
2023-04-04T12:31:03.194Z,22.71
2023-04-04T12:32:03.121Z,22.74
2023-04-04T12:33:03.133Z,22.75
2023-04-04T12:34:02.126Z,22.72
2023-04-04T12:35:02.079Z,22.72
2023-04-04T12:36:03.139Z,22.71
2023-04-04T12:37:02.175Z,22.72
2023-04-04T12:38:03.244Z,22.74
2023-04-04T12:39:03.329Z,22.75
2023-04-04T12:40:03.386Z,22.74
2023-04-04T12:41:03.434Z,22.72
2023-04-04T12:42:03.536Z,22.72
2023-04-04T12:43:03.543Z,22.74
2023-04-04T12:44:02.618Z,22.75
2023-04-04T12:45:02.753Z,22.76
2023-04-04T12:46:03.725Z,22.74
2023-04-04T12:47:03.811Z,22.76
2023-04-04T12:48:03.943Z,22.74
2023-04-04T12:49:03.904Z,22.74
2023-04-04T12:50:03.963Z,22.74
2023-04-04T12:51:04.025Z,22.74
2023-04-04T12:52:04.114Z,22.71
2023-04-04T12:53:18.742Z,22.75
2023-04-04T12:54:04.162Z,22.72
2023-04-04T12:55:08.196Z,22.74
2023-04-04T12:56:04.282Z,22.72